sensor_id;sensor_type;location;lat;lon;timestamp;pressure;altitude;pressure_sealevel;temperature;humidity
68376;BME280;55318;52.068;5.188;2023-03-23T00:01:13;100166.0;;;13.35;92.14
68376;BME280;55318;52.068;5.188;2023-03-23T00:04:25;100169.0;;;13.36;91.63
68376;BME280;55318;52.068;5.188;2023-03-23T00:06:02;100165.0;;;13.4;91.34
68376;BME280;55318;52.068;5.188;2023-03-23T00:07:38;100185.0;;;13.31;91.72
68376;BME280;55318;52.068;5.188;2023-03-23T00:09:15;100184.0;;;13.27;91.55
68376;BME280;55318;52.068;5.188;2023-03-23T00:12:30;100185.0;;;13.32;90.96
68376;BME280;55318;52.068;5.188;2023-03-23T00:14:08;100184.0;;;13.43;91.23
68376;BME280;55318;52.068;5.188;2023-03-23T00:15:46;100187.0;;;13.41;90.69
68376;BME280;55318;52.068;5.188;2023-03-23T00:19:00;100184.0;;;13.49;90.36
68376;BME280;55318;52.068;5.188;2023-03-23T00:20:38;100186.0;;;13.5;90.32
68376;BME280;55318;52.068;5.188;2023-03-23T00:22:16;100174.0;;;13.48;89.69
68376;BME280;55318;52.068;5.188;2023-03-23T00:23:53;100183.0;;;13.55;89.6
68376;BME280;55318;52.068;5.188;2023-03-23T00:27:05;100184.0;;;13.51;89.08
68376;BME280;55318;52.068;5.188;2023-03-23T00:28:41;100176.0;;;13.51;88.4
68376;BME280;55318;52.068;5.188;2023-03-23T00:30:18;100176.0;;;13.53;88.81
68376;BME280;55318;52.068;5.188;2023-03-23T00:33:32;100176.0;;;13.54;88.37
68376;BME280;55318;52.068;5.188;2023-03-23T00:35:09;100175.0;;;13.54;88.16
68376;BME280;55318;52.068;5.188;2023-03-23T00:36:46;100164.0;;;13.55;87.86
68376;BME280;55318;52.068;5.188;2023-03-23T00:40:00;100159.0;;;13.65;87.9
68376;BME280;55318;52.068;5.188;2023-03-23T00:41:36;100152.0;;;13.65;87.45
68376;BME280;55318;52.068;5.188;2023-03-23T00:43:13;100148.0;;;13.64;87.27
68376;BME280;55318;52.068;5.188;2023-03-23T00:44:49;100149.0;;;13.58;87.03
68376;BME280;55318;52.068;5.188;2023-03-23T00:48:01;100152.0;;;13.56;87.38
68376;BME280;55318;52.068;5.188;2023-03-23T00:49:38;100147.0;;;13.58;87.14
68376;BME280;55318;52.068;5.188;2023-03-23T00:51:14;100139.0;;;13.54;87.38
68376;BME280;55318;52.068;5.188;2023-03-23T00:54:27;100133.0;;;13.57;86.92
68376;BME280;55318;52.068;5.188;2023-03-23T00:56:04;100130.0;;;13.49;87.24
68376;BME280;55318;52.068;5.188;2023-03-23T00:57:41;100134.0;;;13.58;86.91
68376;BME280;55318;52.068;5.188;2023-03-23T01:00:54;100123.0;;;13.53;86.98
68376;BME280;55318;52.068;5.188;2023-03-23T01:02:30;100131.0;;;13.59;86.43
68376;BME280;55318;52.068;5.188;2023-03-23T01:04:08;100127.0;;;13.67;86.15
68376;BME280;55318;52.068;5.188;2023-03-23T01:05:45;100128.0;;;13.72;86.21
68376;BME280;55318;52.068;5.188;2023-03-23T01:08:58;100125.0;;;13.66;86.41
68376;BME280;55318;52.068;5.188;2023-03-23T01:10:35;100121.0;;;13.66;86.04
68376;BME280;55318;52.068;5.188;2023-03-23T01:12:11;100123.0;;;13.7;86.03
68376;BME280;55318;52.068;5.188;2023-03-23T01:15:23;100133.0;;;13.75;86.19
68376;BME280;55318;52.068;5.188;2023-03-23T01:16:59;100137.0;;;13.72;86.14
68376;BME280;55318;52.068;5.188;2023-03-23T01:18:36;100142.0;;;13.72;86.19
68376;BME280;55318;52.068;5.188;2023-03-23T01:21:51;100135.0;;;13.72;85.58
68376;BME280;55318;52.068;5.188;2023-03-23T01:23:27;100119.0;;;13.7;85.67
68376;BME280;55318;52.068;5.188;2023-03-23T01:25:03;100105.0;;;13.69;85.74
68376;BME280;55318;52.068;5.188;2023-03-23T01:26:40;100113.0;;;13.77;85.63
68376;BME280;55318;52.068;5.188;2023-03-23T01:29:52;100114.0;;;13.74;85.62
68376;BME280;55318;52.068;5.188;2023-03-23T01:31:28;100114.0;;;13.75;85.3
68376;BME280;55318;52.068;5.188;2023-03-23T01:33:04;100113.0;;;13.76;85.43
68376;BME280;55318;52.068;5.188;2023-03-23T01:36:19;100103.0;;;13.75;85.26
68376;BME280;55318;52.068;5.188;2023-03-23T01:37:57;100108.0;;;13.77;85.34
68376;BME280;55318;52.068;5.188;2023-03-23T01:39:33;100088.0;;;13.73;85.31
68376;BME280;55318;52.068;5.188;2023-03-23T01:42:50;100098.0;;;13.81;85.24
68376;BME280;55318;52.068;5.188;2023-03-23T01:45:25;100097.0;;;13.79;85.23
68376;BME280;55318;52.068;5.188;2023-03-23T01:47:02;100099.0;;;13.82;85.29
68376;BME280;55318;52.068;5.188;2023-03-23T01:48:39;100099.0;;;13.71;85.69
68376;BME280;55318;52.068;5.188;2023-03-23T01:50:16;100097.0;;;13.76;85.56
68376;BME280;55318;52.068;5.188;2023-03-23T01:51:56;100100.0;;;13.82;85.4
68376;BME280;55318;52.068;5.188;2023-03-23T01:55:16;100100.0;;;13.76;85.62
68376;BME280;55318;52.068;5.188;2023-03-23T01:56:55;100099.0;;;13.72;85.89
68376;BME280;55318;52.068;5.188;2023-03-23T01:58:37;100100.0;;;13.72;85.71
68376;BME280;55318;52.068;5.188;2023-03-23T02:00:14;100088.0;;;13.7;85.83
68376;BME280;55318;52.068;5.188;2023-03-23T02:03:29;100090.0;;;13.71;86.01
68376;BME280;55318;52.068;5.188;2023-03-23T02:05:11;100088.0;;;13.77;85.39
68376;BME280;55318;52.068;5.188;2023-03-23T02:06:49;100086.0;;;13.74;85.07
68376;BME280;55318;52.068;5.188;2023-03-23T02:10:05;100080.0;;;13.81;85.08
68376;BME280;55318;52.068;5.188;2023-03-23T02:11:41;100083.0;;;13.78;85.34
68376;BME280;55318;52.068;5.188;2023-03-23T02:13:17;100083.0;;;13.72;85.25
68376;BME280;55318;52.068;5.188;2023-03-23T02:14:55;100084.0;;;13.77;84.86
68376;BME280;55318;52.068;5.188;2023-03-23T02:18:27;100081.0;;;13.87;84.33
68376;BME280;55318;52.068;5.188;2023-03-23T02:20:26;100085.0;;;13.81;84.78
68376;BME280;55318;52.068;5.188;2023-03-23T02:22:20;100077.0;;;13.8;84.84
68376;BME280;55318;52.068;5.188;2023-03-23T02:25:40;100097.0;;;13.78;85.13
68376;BME280;55318;52.068;5.188;2023-03-23T02:27:46;100097.0;;;13.87;85.15
68376;BME280;55318;52.068;5.188;2023-03-23T02:30:10;100089.0;;;13.74;85.16
68376;BME280;55318;52.068;5.188;2023-03-23T02:32:10;100088.0;;;13.88;84.99
68376;BME280;55318;52.068;5.188;2023-03-23T02:33:54;100087.0;;;13.83;84.66
68376;BME280;55318;52.068;5.188;2023-03-23T02:37:16;100082.0;;;13.9;84.38
68376;BME280;55318;52.068;5.188;2023-03-23T02:39:01;100083.0;;;13.91;84.45
68376;BME280;55318;52.068;5.188;2023-03-23T02:40:43;100092.0;;;13.91;84.11
68376;BME280;55318;52.068;5.188;2023-03-23T02:42:24;100088.0;;;13.82;84.55
68376;BME280;55318;52.068;5.188;2023-03-23T02:44:04;100084.0;;;13.92;84.19
68376;BME280;55318;52.068;5.188;2023-03-23T02:47:22;100080.0;;;13.83;84.18
68376;BME280;55318;52.068;5.188;2023-03-23T02:49:01;100072.0;;;13.91;83.96
68376;BME280;55318;52.068;5.188;2023-03-23T02:50:43;100082.0;;;13.88;83.82
68376;BME280;55318;52.068;5.188;2023-03-23T02:54:04;100085.0;;;13.98;83.68
68376;BME280;55318;52.068;5.188;2023-03-23T02:55:43;100088.0;;;14.06;83.47
68376;BME280;55318;52.068;5.188;2023-03-23T02:57:20;100086.0;;;14.0;82.79
68376;BME280;55318;52.068;5.188;2023-03-23T02:58:58;100072.0;;;14.1;82.79
68376;BME280;55318;52.068;5.188;2023-03-23T03:02:14;100071.0;;;14.02;83.24
68376;BME280;55318;52.068;5.188;2023-03-23T03:03:54;100077.0;;;14.0;82.62
68376;BME280;55318;52.068;5.188;2023-03-23T03:05:37;100076.0;;;14.03;82.52
68376;BME280;55318;52.068;5.188;2023-03-23T03:07:39;100067.0;;;13.94;82.94
68376;BME280;55318;52.068;5.188;2023-03-23T03:09:30;100071.0;;;13.89;83.13
68376;BME280;55318;52.068;5.188;2023-03-23T03:12:55;100078.0;;;13.88;82.87
68376;BME280;55318;52.068;5.188;2023-03-23T03:14:37;100076.0;;;13.95;82.67
68376;BME280;55318;52.068;5.188;2023-03-23T03:16:23;100075.0;;;13.98;82.48
68376;BME280;55318;52.068;5.188;2023-03-23T03:18:08;100072.0;;;14.0;82.24
68376;BME280;55318;52.068;5.188;2023-03-23T03:19:50;100062.0;;;13.9;82.39
68376;BME280;55318;52.068;5.188;2023-03-23T03:23:11;100065.0;;;13.89;82.44
68376;BME280;55318;52.068;5.188;2023-03-23T03:24:50;100070.0;;;13.96;82.29
68376;BME280;55318;52.068;5.188;2023-03-23T03:26:27;100062.0;;;13.97;82.45
68376;BME280;55318;52.068;5.188;2023-03-23T03:28:06;100057.0;;;13.97;81.96
68376;BME280;55318;52.068;5.188;2023-03-23T03:31:23;100071.0;;;13.99;82.37
68376;BME280;55318;52.068;5.188;2023-03-23T03:33:04;100072.0;;;13.96;82.21
68376;BME280;55318;52.068;5.188;2023-03-23T03:34:41;100056.0;;;13.93;82.28
68376;BME280;55318;52.068;5.188;2023-03-23T03:37:57;100055.0;;;13.9;82.41
68376;BME280;55318;52.068;5.188;2023-03-23T03:39:41;100043.0;;;13.96;82.28
68376;BME280;55318;52.068;5.188;2023-03-23T03:41:18;100046.0;;;14.0;82.17
68376;BME280;55318;52.068;5.188;2023-03-23T03:42:55;100055.0;;;14.06;81.75
68376;BME280;55318;52.068;5.188;2023-03-23T03:46:09;100058.0;;;14.04;82.02
68376;BME280;55318;52.068;5.188;2023-03-23T03:47:45;100057.0;;;14.06;82.1
68376;BME280;55318;52.068;5.188;2023-03-23T03:49:21;100065.0;;;14.06;81.83
68376;BME280;55318;52.068;5.188;2023-03-23T03:52:33;100063.0;;;14.08;81.56
68376;BME280;55318;52.068;5.188;2023-03-23T03:54:10;100059.0;;;14.08;81.77
68376;BME280;55318;52.068;5.188;2023-03-23T03:55:46;100064.0;;;14.07;81.8
68376;BME280;55318;52.068;5.188;2023-03-23T03:57:23;100052.0;;;13.97;81.92
68376;BME280;55318;52.068;5.188;2023-03-23T04:00:35;100045.0;;;14.05;81.86
68376;BME280;55318;52.068;5.188;2023-03-23T04:02:11;100053.0;;;14.1;81.72
68376;BME280;55318;52.068;5.188;2023-03-23T04:03:47;100059.0;;;14.14;81.64
68376;BME280;55318;52.068;5.188;2023-03-23T04:06:59;100067.0;;;14.04;81.64
68376;BME280;55318;52.068;5.188;2023-03-23T04:08:36;100061.0;;;14.07;81.06
68376;BME280;55318;52.068;5.188;2023-03-23T04:10:13;100062.0;;;14.07;81.27
68376;BME280;55318;52.068;5.188;2023-03-23T04:13:25;100060.0;;;14.03;81.19
68376;BME280;55318;52.068;5.188;2023-03-23T04:15:01;100057.0;;;14.04;81.19
68376;BME280;55318;52.068;5.188;2023-03-23T04:16:38;100057.0;;;13.97;81.3
68376;BME280;55318;52.068;5.188;2023-03-23T04:18:15;100065.0;;;13.92;81.08
68376;BME280;55318;52.068;5.188;2023-03-23T04:21:29;100061.0;;;13.98;80.94
68376;BME280;55318;52.068;5.188;2023-03-23T04:23:05;100068.0;;;14.11;80.25
68376;BME280;55318;52.068;5.188;2023-03-23T04:24:42;100062.0;;;14.05;80.39
68376;BME280;55318;52.068;5.188;2023-03-23T04:27:54;100064.0;;;14.03;80.34
68376;BME280;55318;52.068;5.188;2023-03-23T04:29:30;100065.0;;;14.01;80.08
68376;BME280;55318;52.068;5.188;2023-03-23T04:31:06;100086.0;;;13.97;80.06
68376;BME280;55318;52.068;5.188;2023-03-23T04:34:18;100092.0;;;14.07;80.05
68376;BME280;55318;52.068;5.188;2023-03-23T04:35:56;100096.0;;;14.03;80.02
68376;BME280;55318;52.068;5.188;2023-03-23T04:37:36;100082.0;;;13.93;80.28
68376;BME280;55318;52.068;5.188;2023-03-23T04:39:14;100084.0;;;14.03;80.02
68376;BME280;55318;52.068;5.188;2023-03-23T04:42:29;100099.0;;;14.04;79.52
68376;BME280;55318;52.068;5.188;2023-03-23T04:44:06;100092.0;;;13.91;79.75
68376;BME280;55318;52.068;5.188;2023-03-23T04:45:43;100097.0;;;13.95;79.83
68376;BME280;55318;52.068;5.188;2023-03-23T04:48:56;100094.0;;;13.91;80.11
68376;BME280;55318;52.068;5.188;2023-03-23T04:50:32;100101.0;;;13.95;79.88
68376;BME280;55318;52.068;5.188;2023-03-23T04:52:09;100091.0;;;13.89;80.03
68376;BME280;55318;52.068;5.188;2023-03-23T04:53:45;100095.0;;;13.86;80.12
68376;BME280;55318;52.068;5.188;2023-03-23T04:56:57;100105.0;;;13.81;80.87
68376;BME280;55318;52.068;5.188;2023-03-23T04:58:33;100106.0;;;13.8;81.41
68376;BME280;55318;52.068;5.188;2023-03-23T05:00:11;100105.0;;;13.84;81.45
68376;BME280;55318;52.068;5.188;2023-03-23T05:03:23;100108.0;;;13.77;81.86
68376;BME280;55318;52.068;5.188;2023-03-23T05:04:59;100108.0;;;13.85;81.25
68376;BME280;55318;52.068;5.188;2023-03-23T05:06:35;100107.0;;;13.73;81.56
68376;BME280;55318;52.068;5.188;2023-03-23T05:09:47;100114.0;;;13.76;81.77
68376;BME280;55318;52.068;5.188;2023-03-23T05:11:24;100111.0;;;13.69;82.54
68376;BME280;55318;52.068;5.188;2023-03-23T05:13:00;100105.0;;;13.77;83.05
68376;BME280;55318;52.068;5.188;2023-03-23T05:16:16;100101.0;;;13.63;83.39
68376;BME280;55318;52.068;5.188;2023-03-23T05:17:52;100109.0;;;13.61;83.81
68376;BME280;55318;52.068;5.188;2023-03-23T05:19:28;100102.0;;;13.68;83.36
68376;BME280;55318;52.068;5.188;2023-03-23T05:21:04;100107.0;;;13.67;83.58
68376;BME280;55318;52.068;5.188;2023-03-23T05:24:17;100101.0;;;13.63;83.82
68376;BME280;55318;52.068;5.188;2023-03-23T05:25:54;100105.0;;;13.7;83.51
68376;BME280;55318;52.068;5.188;2023-03-23T05:27:31;100120.0;;;13.51;85.02
68376;BME280;55318;52.068;5.188;2023-03-23T05:30:43;100130.0;;;13.44;86.57
68376;BME280;55318;52.068;5.188;2023-03-23T05:32:19;100130.0;;;13.61;86.7
68376;BME280;55318;52.068;5.188;2023-03-23T05:33:55;100128.0;;;13.42;87.24
68376;BME280;55318;52.068;5.188;2023-03-23T05:37:08;100128.0;;;13.47;87.38
68376;BME280;55318;52.068;5.188;2023-03-23T05:38:45;100128.0;;;13.55;87.88
68376;BME280;55318;52.068;5.188;2023-03-23T05:40:21;100133.0;;;13.39;88.35
68376;BME280;55318;52.068;5.188;2023-03-23T05:41:57;100127.0;;;13.42;89.1
68376;BME280;55318;52.068;5.188;2023-03-23T05:45:10;100126.0;;;13.56;88.87
68376;BME280;55318;52.068;5.188;2023-03-23T05:46:47;100126.0;;;13.55;88.76
68376;BME280;55318;52.068;5.188;2023-03-23T05:48:24;100130.0;;;13.45;88.87
68376;BME280;55318;52.068;5.188;2023-03-23T05:51:37;100141.0;;;13.37;89.29
68376;BME280;55318;52.068;5.188;2023-03-23T05:53:13;100140.0;;;13.54;88.53
68376;BME280;55318;52.068;5.188;2023-03-23T05:54:49;100151.0;;;13.4;89.6
68376;BME280;55318;52.068;5.188;2023-03-23T05:58:01;100158.0;;;13.27;90.46
68376;BME280;55318;52.068;5.188;2023-03-23T05:59:37;100150.0;;;13.27;91.47
68376;BME280;55318;52.068;5.188;2023-03-23T06:01:14;100169.0;;;13.2;92.09
68376;BME280;55318;52.068;5.188;2023-03-23T06:02:50;100163.0;;;13.07;93.22
68376;BME280;55318;52.068;5.188;2023-03-23T06:06:09;100145.0;;;13.23;93.09
68376;BME280;55318;52.068;5.188;2023-03-23T06:07:46;100140.0;;;13.31;92.6
68376;BME280;55318;52.068;5.188;2023-03-23T06:09:22;100153.0;;;13.29;92.97
68376;BME280;55318;52.068;5.188;2023-03-23T06:12:34;100164.0;;;13.28;93.27
68376;BME280;55318;52.068;5.188;2023-03-23T06:14:11;100180.0;;;13.37;93.4
68376;BME280;55318;52.068;5.188;2023-03-23T06:15:48;100177.0;;;13.21;94.55
68376;BME280;55318;52.068;5.188;2023-03-23T06:19:00;100170.0;;;13.16;94.75
68376;BME280;55318;52.068;5.188;2023-03-23T06:20:36;100178.0;;;13.07;94.82
68376;BME280;55318;52.068;5.188;2023-03-23T06:22:12;100174.0;;;13.05;95.42
68376;BME280;55318;52.068;5.188;2023-03-23T06:23:49;100172.0;;;13.15;95.2
68376;BME280;55318;52.068;5.188;2023-03-23T06:27:01;100171.0;;;13.24;94.91
68376;BME280;55318;52.068;5.188;2023-03-23T06:28:38;100175.0;;;13.23;94.7
68376;BME280;55318;52.068;5.188;2023-03-23T06:30:14;100180.0;;;13.03;95.11
68376;BME280;55318;52.068;5.188;2023-03-23T06:33:32;100189.0;;;13.07;95.08
68376;BME280;55318;52.068;5.188;2023-03-23T06:35:09;100191.0;;;13.06;95.0
68376;BME280;55318;52.068;5.188;2023-03-23T06:36:46;100191.0;;;13.03;94.71
68376;BME280;55318;52.068;5.188;2023-03-23T06:38:23;100206.0;;;12.99;94.4
68376;BME280;55318;52.068;5.188;2023-03-23T06:41:36;100205.0;;;13.01;94.47
68376;BME280;55318;52.068;5.188;2023-03-23T06:43:12;100205.0;;;13.03;94.36
68376;BME280;55318;52.068;5.188;2023-03-23T06:44:49;100202.0;;;12.94;94.17
68376;BME280;55318;52.068;5.188;2023-03-23T06:48:01;100215.0;;;12.93;94.33
68376;BME280;55318;52.068;5.188;2023-03-23T06:49:37;100215.0;;;12.96;94.88
68376;BME280;55318;52.068;5.188;2023-03-23T06:51:13;100222.0;;;13.05;94.19
68376;BME280;55318;52.068;5.188;2023-03-23T06:54:27;100215.0;;;12.97;94.63
68376;BME280;55318;52.068;5.188;2023-03-23T06:56:03;100212.0;;;13.01;94.28
68376;BME280;55318;52.068;5.188;2023-03-23T06:57:39;100215.0;;;13.08;94.61
68376;BME280;55318;52.068;5.188;2023-03-23T07:00:54;100197.0;;;12.96;95.11
68376;BME280;55318;52.068;5.188;2023-03-23T07:02:29;100199.0;;;12.99;94.87
68376;BME280;55318;52.068;5.188;2023-03-23T07:04:05;100225.0;;;13.15;95.21
68376;BME280;55318;52.068;5.188;2023-03-23T07:05:45;100234.0;;;13.16;95.93
68376;BME280;55318;52.068;5.188;2023-03-23T07:08:58;100216.0;;;13.11;95.42
68376;BME280;55318;52.068;5.188;2023-03-23T07:10:34;100214.0;;;13.19;95.42
68376;BME280;55318;52.068;5.188;2023-03-23T07:12:10;100215.0;;;13.17;95.11
68376;BME280;55318;52.068;5.188;2023-03-23T07:15:23;100220.0;;;12.99;95.57
68376;BME280;55318;52.068;5.188;2023-03-23T07:16:58;100219.0;;;12.77;94.7
68376;BME280;55318;52.068;5.188;2023-03-23T07:18:35;100219.0;;;12.9;94.1
68376;BME280;55318;52.068;5.188;2023-03-23T07:20:11;100233.0;;;12.93;93.8
68376;BME280;55318;52.068;5.188;2023-03-23T07:23:24;100230.0;;;13.02;93.83
68376;BME280;55318;52.068;5.188;2023-03-23T07:25:00;100233.0;;;12.93;93.37
68376;BME280;55318;52.068;5.188;2023-03-23T07:26:36;100230.0;;;12.93;93.32
68376;BME280;55318;52.068;5.188;2023-03-23T07:29:48;100230.0;;;12.75;93.95
68376;BME280;55318;52.068;5.188;2023-03-23T07:31:26;100237.0;;;12.72;93.81
68376;BME280;55318;52.068;5.188;2023-03-23T07:33:04;100241.0;;;12.75;93.82
68376;BME280;55318;52.068;5.188;2023-03-23T07:36:17;100236.0;;;12.78;93.93
68376;BME280;55318;52.068;5.188;2023-03-23T07:37:53;100239.0;;;12.85;93.58
68376;BME280;55318;52.068;5.188;2023-03-23T07:39:30;100239.0;;;12.96;93.09
68376;BME280;55318;52.068;5.188;2023-03-23T07:41:07;100245.0;;;12.91;93.19
68376;BME280;55318;52.068;5.188;2023-03-23T07:44:21;100250.0;;;12.96;92.65
68376;BME280;55318;52.068;5.188;2023-03-23T07:45:58;100255.0;;;13.02;92.32
68376;BME280;55318;52.068;5.188;2023-03-23T07:47:34;100252.0;;;13.12;92.44
68376;BME280;55318;52.068;5.188;2023-03-23T07:50:46;100253.0;;;13.08;92.76
68376;BME280;55318;52.068;5.188;2023-03-23T07:52:23;100256.0;;;13.06;93.47
68376;BME280;55318;52.068;5.188;2023-03-23T07:53:59;100248.0;;;13.22;92.52
68376;BME280;55318;52.068;5.188;2023-03-23T07:57:11;100246.0;;;13.31;92.63
68376;BME280;55318;52.068;5.188;2023-03-23T07:58:48;100236.0;;;13.28;92.29
68376;BME280;55318;52.068;5.188;2023-03-23T08:00:25;100239.0;;;13.34;92.05
68376;BME280;55318;52.068;5.188;2023-03-23T08:02:02;100250.0;;;13.24;91.17
68376;BME280;55318;52.068;5.188;2023-03-23T08:05:14;100255.0;;;13.21;91.05
68376;BME280;55318;52.068;5.188;2023-03-23T08:06:51;100265.0;;;13.18;90.91
68376;BME280;55318;52.068;5.188;2023-03-23T08:08:27;100268.0;;;13.2;90.39
68376;BME280;55318;52.068;5.188;2023-03-23T08:11:40;100267.0;;;13.03;90.44
68376;BME280;55318;52.068;5.188;2023-03-23T08:13:18;100267.0;;;13.07;91.01
68376;BME280;55318;52.068;5.188;2023-03-23T08:14:54;100264.0;;;13.07;90.62
68376;BME280;55318;52.068;5.188;2023-03-23T08:18:06;100267.0;;;13.06;90.35
68376;BME280;55318;52.068;5.188;2023-03-23T08:19:43;100270.0;;;13.03;90.95
68376;BME280;55318;52.068;5.188;2023-03-23T08:21:19;100266.0;;;13.14;91.39
68376;BME280;55318;52.068;5.188;2023-03-23T08:24:32;100261.0;;;13.23;91.05
68376;BME280;55318;52.068;5.188;2023-03-23T08:26:09;100266.0;;;13.36;90.69
68376;BME280;55318;52.068;5.188;2023-03-23T08:27:46;100269.0;;;13.39;89.87
68376;BME280;55318;52.068;5.188;2023-03-23T08:29:23;100276.0;;;13.57;89.84
68376;BME280;55318;52.068;5.188;2023-03-23T08:32:36;100277.0;;;13.66;89.74
68376;BME280;55318;52.068;5.188;2023-03-23T08:34:12;100280.0;;;13.73;89.32
68376;BME280;55318;52.068;5.188;2023-03-23T08:35:54;100280.0;;;13.75;89.44
68376;BME280;55318;52.068;5.188;2023-03-23T08:39:08;100280.0;;;13.65;88.96
68376;BME280;55318;52.068;5.188;2023-03-23T08:40:44;100280.0;;;13.65;90.06
68376;BME280;55318;52.068;5.188;2023-03-23T08:42:20;100273.0;;;13.62;89.87
68376;BME280;55318;52.068;5.188;2023-03-23T08:43:56;100280.0;;;13.71;89.39
68376;BME280;55318;52.068;5.188;2023-03-23T08:47:08;100283.0;;;13.68;89.71
68376;BME280;55318;52.068;5.188;2023-03-23T08:48:45;100293.0;;;13.75;89.24
68376;BME280;55318;52.068;5.188;2023-03-23T08:50:24;100296.0;;;13.79;88.18
68376;BME280;55318;52.068;5.188;2023-03-23T08:53:38;100291.0;;;13.9;87.92
68376;BME280;55318;52.068;5.188;2023-03-23T08:55:15;100300.0;;;13.86;87.18
68376;BME280;55318;52.068;5.188;2023-03-23T08:56:52;100307.0;;;13.8;88.07
68376;BME280;55318;52.068;5.188;2023-03-23T09:00:07;100297.0;;;13.81;88.41
68376;BME280;55318;52.068;5.188;2023-03-23T09:01:45;100290.0;;;13.95;87.53
68376;BME280;55318;52.068;5.188;2023-03-23T09:03:21;100298.0;;;14.18;85.92
68376;BME280;55318;52.068;5.188;2023-03-23T09:04:57;100311.0;;;14.38;85.52
68376;BME280;55318;52.068;5.188;2023-03-23T09:08:10;100305.0;;;14.42;84.04
68376;BME280;55318;52.068;5.188;2023-03-23T09:09:47;100302.0;;;14.63;84.94
68376;BME280;55318;52.068;5.188;2023-03-23T09:11:23;100313.0;;;14.49;81.72
68376;BME280;55318;52.068;5.188;2023-03-23T09:14:36;100313.0;;;14.46;83.14
68376;BME280;55318;52.068;5.188;2023-03-23T09:16:13;100308.0;;;14.4;82.3
68376;BME280;55318;52.068;5.188;2023-03-23T09:17:50;100306.0;;;14.48;82.32
68376;BME280;55318;52.068;5.188;2023-03-23T09:19:28;100313.0;;;14.61;81.77
68376;BME280;55318;52.068;5.188;2023-03-23T09:22:43;100308.0;;;14.35;79.8
68376;BME280;55318;52.068;5.188;2023-03-23T09:24:22;100307.0;;;14.45;80.62
68376;BME280;55318;52.068;5.188;2023-03-23T09:26:00;100297.0;;;14.62;80.86
68376;BME280;55318;52.068;5.188;2023-03-23T09:29:14;100299.0;;;14.59;77.61
68376;BME280;55318;52.068;5.188;2023-03-23T09:30:50;100303.0;;;14.58;77.23
68376;BME280;55318;52.068;5.188;2023-03-23T09:32:26;100310.0;;;14.43;78.45
68376;BME280;55318;52.068;5.188;2023-03-23T09:35:38;100303.0;;;14.5;78.95
68376;BME280;55318;52.068;5.188;2023-03-23T09:37:15;100308.0;;;14.52;78.19
68376;BME280;55318;52.068;5.188;2023-03-23T09:38:52;100321.0;;;14.68;78.66
68376;BME280;55318;52.068;5.188;2023-03-23T09:40:32;100326.0;;;14.73;79.37
68376;BME280;55318;52.068;5.188;2023-03-23T09:44:19;100312.0;;;14.62;78.5
68376;BME280;55318;52.068;5.188;2023-03-23T09:46:18;100310.0;;;14.69;78.05
68376;BME280;55318;52.068;5.188;2023-03-23T09:48:14;100315.0;;;14.7;77.87
68376;BME280;55318;52.068;5.188;2023-03-23T09:50:11;100317.0;;;14.72;76.47
68376;BME280;55318;52.068;5.188;2023-03-23T09:51:50;100319.0;;;14.86;76.58
68376;BME280;55318;52.068;5.188;2023-03-23T09:53:33;100325.0;;;14.88;76.36
68376;BME280;55318;52.068;5.188;2023-03-23T09:55:15;100332.0;;;14.66;75.58
68376;BME280;55318;52.068;5.188;2023-03-23T09:58:36;100331.0;;;14.67;74.67
68376;BME280;55318;52.068;5.188;2023-03-23T10:00:20;100343.0;;;14.62;74.89
68376;BME280;55318;52.068;5.188;2023-03-23T10:02:12;100341.0;;;14.51;74.08
68376;BME280;55318;52.068;5.188;2023-03-23T10:04:01;100340.0;;;14.55;74.87
68376;BME280;55318;52.068;5.188;2023-03-23T10:05:53;100350.0;;;14.75;73.8
68376;BME280;55318;52.068;5.188;2023-03-23T10:09:08;100348.0;;;14.92;73.74
68376;BME280;55318;52.068;5.188;2023-03-23T10:10:58;100353.0;;;15.03;73.97
68376;BME280;55318;52.068;5.188;2023-03-23T10:12:48;100358.0;;;15.21;74.08
68376;BME280;55318;52.068;5.188;2023-03-23T10:14:34;100364.0;;;15.13;71.78
68376;BME280;55318;52.068;5.188;2023-03-23T10:16:19;100365.0;;;14.96;71.41
68376;BME280;55318;52.068;5.188;2023-03-23T10:18:06;100364.0;;;15.07;72.75
68376;BME280;55318;52.068;5.188;2023-03-23T10:21:54;100366.0;;;15.03;71.66
68376;BME280;55318;52.068;5.188;2023-03-23T10:23:43;100366.0;;;15.18;72.0
68376;BME280;55318;52.068;5.188;2023-03-23T10:25:29;100380.0;;;15.07;71.62
68376;BME280;55318;52.068;5.188;2023-03-23T10:27:17;100369.0;;;14.95;71.77
68376;BME280;55318;52.068;5.188;2023-03-23T10:28:58;100378.0;;;15.0;71.98
68376;BME280;55318;52.068;5.188;2023-03-23T10:30:39;100382.0;;;14.86;73.31
68376;BME280;55318;52.068;5.188;2023-03-23T10:34:02;100370.0;;;14.99;73.27
68376;BME280;55318;52.068;5.188;2023-03-23T10:35:45;100373.0;;;15.16;71.72
68376;BME280;55318;52.068;5.188;2023-03-23T10:37:38;100375.0;;;15.32;71.87
68376;BME280;55318;52.068;5.188;2023-03-23T10:39:18;100376.0;;;15.28;71.05
68376;BME280;55318;52.068;5.188;2023-03-23T10:42:41;100372.0;;;15.27;70.66
68376;BME280;55318;52.068;5.188;2023-03-23T10:44:19;100377.0;;;15.37;70.94
68376;BME280;55318;52.068;5.188;2023-03-23T10:46:02;100376.0;;;15.59;70.86
68376;BME280;55318;52.068;5.188;2023-03-23T10:47:51;100376.0;;;15.56;69.8
68376;BME280;55318;52.068;5.188;2023-03-23T10:49:36;100381.0;;;15.74;69.95
68376;BME280;55318;52.068;5.188;2023-03-23T10:52:57;100376.0;;;15.63;67.84
68376;BME280;55318;52.068;5.188;2023-03-23T10:54:38;100361.0;;;15.54;67.09
68376;BME280;55318;52.068;5.188;2023-03-23T10:56:22;100372.0;;;15.49;67.11
68376;BME280;55318;52.068;5.188;2023-03-23T10:58:03;100380.0;;;15.46;66.52
68376;BME280;55318;52.068;5.188;2023-03-23T11:01:19;100363.0;;;15.14;65.56
68376;BME280;55318;52.068;5.188;2023-03-23T11:02:59;100382.0;;;15.16;67.16
68376;BME280;55318;52.068;5.188;2023-03-23T11:04:37;100384.0;;;15.3;67.52
68376;BME280;55318;52.068;5.188;2023-03-23T11:06:20;100385.0;;;15.24;68.19
68376;BME280;55318;52.068;5.188;2023-03-23T11:09:37;100390.0;;;15.11;67.63